Time;durP1;ratioP1;P1;durP2;ratioP2;P2;SDS_P1;SDS_P2;PMS_P1;PMS_P2;Temp;Humidity;BMP_temperature;BMP_pressure;BME280_temperature;BME280_humidity;BME280_pressure;Samples;Min_cycle;Max_cycle;Signal;HPM_P1;HPM_P2
2022/10/18 00:04:17;;;;;;;11.83;8.70;;;17.90;99.90;;;;;;5076872;28;20217;-91
2022/10/18 00:07:23;;;;;;;10.30;8.50;;;18.00;99.90;;;;;;5076022;28;20193;-96
2022/10/18 00:10:19;;;;;;;10.50;8.50;;;17.90;99.90;;;;;;5072006;28;20221;-95
2022/10/18 00:12:52;;;;;;;11.50;9.30;;;18.00;99.90;;;;;;5071097;28;20425;-96
2022/10/18 00:18:26;;;;;;;9.60;8.63;;;17.90;99.90;;;;;;5078740;28;20209;-95
2022/10/18 00:21:25;;;;;;;11.53;9.23;;;17.70;99.90;;;;;;5078473;28;20207;-92
2022/10/18 00:27:24;;;;;;;9.10;8.23;;;17.60;99.90;;;;;;5078575;28;20182;-96
2022/10/18 00:33:05;;;;;;;9.87;8.97;;;17.80;99.90;;;;;;5077083;28;20213;-90
2022/10/18 00:35:35;;;;;;;12.10;8.57;;;17.80;99.90;;;;;;5079602;28;20216;-89
2022/10/18 00:38:05;;;;;;;13.03;9.20;;;17.80;99.90;;;;;;5079614;28;20212;-95
2022/10/18 00:40:32;;;;;;;11.57;8.73;;;17.70;99.90;;;;;;5078289;28;20274;-92
2022/10/18 00:43:03;;;;;;;10.33;8.53;;;17.70;99.90;;;;;;5078090;28;20186;-89
2022/10/18 00:45:51;;;;;;;12.20;8.60;;;17.70;99.90;;;;;;5078873;28;20265;-91
2022/10/18 00:48:50;;;;;;;13.23;9.03;;;17.70;99.90;;;;;;5093318;28;20253;-93
2022/10/18 00:51:23;;;;;;;13.47;9.10;;;17.70;99.90;;;;;;5093598;28;20214;-92
2022/10/18 00:54:02;;;;;;;15.80;8.70;;;17.60;99.90;;;;;;5090285;28;20204;-91
2022/10/18 00:56:47;;;;;;;9.83;8.57;;;17.70;99.90;;;;;;5099325;28;20296;-91
2022/10/18 00:59:20;;;;;;;14.97;10.43;;;17.70;99.90;;;;;;5096334;28;20415;-89
2022/10/18 01:01:50;;;;;;;11.93;9.00;;;17.80;99.90;;;;;;5096990;28;20232;-94
2022/10/18 01:04:38;;;;;;;11.57;9.40;;;17.70;99.90;;;;;;5099002;28;20202;-94
2022/10/18 01:07:31;;;;;;;12.00;8.40;;;17.60;99.90;;;;;;5096044;28;20214;-93
2022/10/18 01:10:30;;;;;;;9.83;8.77;;;17.60;99.90;;;;;;5096700;28;20189;-92
2022/10/18 01:13:10;;;;;;;11.33;8.90;;;17.60;99.90;;;;;;5098668;28;20277;-88
2022/10/18 01:16:00;;;;;;;10.40;8.60;;;17.60;99.90;;;;;;5096120;28;20254;-94
2022/10/18 01:18:34;;;;;;;8.87;8.00;;;17.60;99.90;;;;;;5099118;28;20205;-93
2022/10/18 01:21:42;;;;;;;12.10;9.00;;;17.40;99.90;;;;;;5093997;28;20212;-96
2022/10/18 01:24:56;;;;;;;13.73;11.00;;;17.40;99.90;;;;;;5093513;28;20424;-94
2022/10/18 01:30:54;;;;;;;9.33;8.40;;;17.60;99.90;;;;;;5097547;28;20231;-93
2022/10/18 01:33:33;;;;;;;11.43;8.80;;;17.60;99.90;;;;;;5085909;28;20213;-89
2022/10/18 01:36:23;;;;;;;13.20;8.87;;;17.60;99.90;;;;;;5089915;28;20259;-89
2022/10/18 01:38:59;;;;;;;12.13;8.73;;;17.50;99.90;;;;;;5089822;28;20212;-88
2022/10/18 01:41:46;;;;;;;10.53;8.83;;;17.40;99.90;;;;;;5078845;28;20215;-89
2022/10/18 01:44:24;;;;;;;10.53;8.47;;;17.50;99.90;;;;;;5088352;28;20327;-92
2022/10/18 01:47:11;;;;;;;14.23;8.97;;;17.50;99.90;;;;;;5093112;28;20272;-95
2022/10/18 01:49:38;;;;;;;13.83;8.80;;;17.50;99.90;;;;;;5094410;28;20205;-92
2022/10/18 01:52:06;;;;;;;11.07;9.20;;;17.40;99.90;;;;;;5095714;28;20220;-94
2022/10/18 01:54:47;;;;;;;10.40;9.30;;;17.40;99.90;;;;;;5096949;28;20272;-96
2022/10/18 01:57:22;;;;;;;11.97;9.40;;;17.30;99.90;;;;;;5094632;28;20303;-95
2022/10/18 02:00:19;;;;;;;10.77;9.03;;;17.30;99.90;;;;;;5093179;28;20207;-96
2022/10/18 02:03:02;;;;;;;11.23;10.03;;;17.30;99.90;;;;;;5097304;28;20728;-89
2022/10/18 02:09:00;;;;;;;13.07;9.60;;;17.40;99.90;;;;;;5096988;28;20645;-94
2022/10/18 02:12:00;;;;;;;13.10;9.97;;;17.40;99.90;;;;;;5089734;28;20208;-90
2022/10/18 02:14:37;;;;;;;12.53;10.60;;;17.40;99.90;;;;;;5094320;28;20270;-95
2022/10/18 02:17:56;;;;;;;16.50;11.63;;;17.40;99.90;;;;;;5093917;28;20198;-91
2022/10/18 02:21:03;;;;;;;15.97;10.47;;;17.50;99.90;;;;;;5093200;28;20201;-92
2022/10/18 02:23:47;;;;;;;15.00;10.93;;;17.50;99.90;;;;;;5093626;28;20193;-93
2022/10/18 02:26:16;;;;;;;14.63;10.73;;;17.50;99.90;;;;;;5092838;28;20217;-91
2022/10/18 02:29:09;;;;;;;11.60;10.30;;;17.50;99.90;;;;;;5093349;28;20197;-90
2022/10/18 02:31:45;;;;;;;14.60;10.13;;;17.60;99.90;;;;;;5089703;28;20213;-90
2022/10/18 02:34:21;;;;;;;15.73;12.23;;;17.50;99.90;;;;;;5075545;28;20205;-88
2022/10/18 02:36:53;;;;;;;21.40;13.53;;;17.50;99.90;;;;;;5076632;28;20205;-88
2022/10/18 02:39:25;;;;;;;18.37;13.23;;;17.40;99.90;;;;;;5075697;28;20206;-88
2022/10/18 02:41:55;;;;;;;15.30;13.80;;;17.40;99.90;;;;;;5074247;28;20186;-88
2022/10/18 02:44:30;;;;;;;18.30;13.63;;;17.40;99.90;;;;;;5080452;28;20227;-88
2022/10/18 02:47:03;;;;;;;18.83;13.80;;;17.30;99.90;;;;;;5081780;28;20212;-96
2022/10/18 02:50:06;;;;;;;16.20;13.87;;;17.40;99.90;;;;;;5094407;28;20198;-92
2022/10/18 02:52:35;;;;;;;17.10;13.40;;;17.40;99.90;;;;;;5097667;28;20217;-92
2022/10/18 03:06:28;;;;;;;19.67;17.53;;;17.40;99.90;;;;;;5186452;27;20535;-90
2022/10/18 03:08:56;;;;;;;24.13;16.60;;;17.90;99.90;;;;;;5148449;28;20199;-95
2022/10/18 03:11:44;;;;;;;19.33;16.27;;;17.70;99.90;;;;;;5151253;28;20264;-93
2022/10/18 03:16:59;;;;;;;20.70;16.03;;;17.50;99.90;;;;;;5149488;28;20200;-91
2022/10/18 03:19:33;;;;;;;21.23;16.93;;;17.50;99.90;;;;;;5147201;28;20294;-94
2022/10/18 03:22:41;;;;;;;23.10;16.07;;;17.40;99.90;;;;;;5154082;28;20188;-94
2022/10/18 03:25:20;;;;;;;18.77;16.03;;;17.10;99.90;;;;;;5151199;28;20246;-95
2022/10/18 03:28:19;;;;;;;22.33;16.17;;;17.00;99.90;;;;;;5153402;27;20213;-96
2022/10/18 03:33:39;;;;;;;18.67;15.30;;;16.90;99.90;;;;;;5155480;27;20186;-88
2022/10/18 03:36:24;;;;;;;16.87;14.50;;;16.90;99.90;;;;;;5154608;27;20206;-94
2022/10/18 03:39:37;;;;;;;19.97;15.00;;;17.00;99.90;;;;;;5154544;27;20195;-93
2022/10/18 03:42:32;;;;;;;21.40;14.90;;;17.00;99.90;;;;;;5154456;28;20203;-95
2022/10/18 03:45:19;;;;;;;21.07;14.33;;;16.70;99.90;;;;;;5152199;27;20242;-91
2022/10/18 03:47:59;;;;;;;20.00;14.10;;;16.70;99.90;;;;;;5151776;27;20288;-93
2022/10/18 03:50:29;;;;;;;19.40;14.03;;;16.70;99.90;;;;;;5148461;28;20206;-90
2022/10/18 03:53:03;;;;;;;16.77;13.97;;;16.60;99.90;;;;;;5148371;28;20258;-90
2022/10/18 03:55:33;;;;;;;16.47;13.27;;;16.60;99.90;;;;;;5151154;27;20257;-96
2022/10/18 04:01:38;;;;;;;14.57;12.73;;;16.40;99.90;;;;;;5149597;28;20206;-89
2022/10/18 04:04:05;;;;;;;17.00;12.07;;;16.30;99.90;;;;;;5132344;27;20232;-92
2022/10/18 04:06:34;;;;;;;17.03;13.10;;;16.30;99.90;;;;;;5131919;27;20210;-93
2022/10/18 04:09:01;;;;;;;23.67;14.20;;;16.30;99.90;;;;;;5132005;27;20208;-90
2022/10/18 04:11:35;;;;;;;19.27;12.93;;;16.30;99.90;;;;;;5132574;27;20209;-89
2022/10/18 04:14:04;;;;;;;18.27;12.73;;;16.40;99.90;;;;;;5134165;27;20204;-88
2022/10/18 04:16:33;;;;;;;17.67;13.27;;;16.20;99.90;;;;;;5127003;27;20206;-88
2022/10/18 04:19:01;;;;;;;18.77;13.20;;;16.20;99.90;;;;;;5122252;27;20189;-91
2022/10/18 04:21:28;;;;;;;16.83;13.33;;;16.30;99.90;;;;;;5123982;28;20207;-94
2022/10/18 04:23:57;;;;;;;20.20;13.17;;;16.40;99.90;;;;;;5119070;28;20201;-89
2022/10/18 04:26:29;;;;;;;15.67;13.93;;;16.40;99.90;;;;;;5119012;28;20190;-93
2022/10/18 04:29:02;;;;;;;21.73;13.43;;;16.40;99.90;;;;;;5117499;28;20546;-93
2022/10/18 04:31:31;;;;;;;17.23;13.90;;;16.40;99.90;;;;;;5117994;28;20219;-92
2022/10/18 04:34:06;;;;;;;20.50;14.17;;;16.50;99.90;;;;;;5118217;28;20192;-91
2022/10/18 04:36:34;;;;;;;15.97;13.03;;;16.60;99.90;;;;;;5117700;27;20210;-91
2022/10/18 04:39:07;;;;;;;20.67;14.65;;;16.70;99.90;;;;;;5117007;28;20918;-90
2022/10/18 04:41:36;;;;;;;16.77;13.60;;;16.60;99.90;;;;;;5117386;28;20209;-91
2022/10/18 04:44:09;;;;;;;16.00;12.70;;;16.50;99.90;;;;;;5117267;28;20209;-95
2022/10/18 04:46:36;;;;;;;19.70;13.60;;;16.40;99.90;;;;;;5117412;28;20214;-93
2022/10/18 04:49:43;;;;;;;17.77;13.10;;;16.50;99.90;;;;;;5117340;28;20206;-92
2022/10/18 04:52:15;;;;;;;17.80;12.80;;;16.60;99.90;;;;;;5117395;28;20634;-93
2022/10/18 04:55:00;;;;;;;18.00;13.27;;;16.60;99.90;;;;;;5117396;27;20214;-90
2022/10/18 04:57:27;;;;;;;17.37;13.90;;;16.70;99.90;;;;;;5127265;28;20218;-89
2022/10/18 04:59:54;;;;;;;17.50;13.37;;;16.80;99.90;;;;;;5127456;28;20229;-88
2022/10/18 05:02:27;;;;;;;20.20;13.83;;;16.90;99.90;;;;;;5106246;28;20212;-91
2022/10/18 05:04:56;;;;;;;17.93;13.33;;;16.90;99.90;;;;;;5116826;28;20208;-92
2022/10/18 05:07:27;;;;;;;22.33;13.70;;;16.90;99.90;;;;;;5116577;28;20253;-89
2022/10/18 05:09:54;;;;;;;23.70;13.80;;;16.80;99.90;;;;;;5116773;28;20207;-92
2022/10/18 05:12:23;;;;;;;17.30;13.57;;;16.80;99.90;;;;;;5116862;28;20210;-92
2022/10/18 05:14:49;;;;;;;25.77;14.70;;;16.80;99.90;;;;;;5116846;28;20203;-93
2022/10/18 05:17:22;;;;;;;20.10;14.03;;;16.80;99.90;;;;;;5117011;28;20217;-91
2022/10/18 05:19:49;;;;;;;16.53;13.13;;;16.70;99.90;;;;;;5116456;28;20208;-89
2022/10/18 05:22:18;;;;;;;20.40;14.23;;;16.60;99.90;;;;;;5116378;28;20209;-91
2022/10/18 05:24:52;;;;;;;17.67;13.63;;;16.60;99.90;;;;;;5116135;28;20217;-91
2022/10/18 05:27:25;;;;;;;19.20;14.70;;;16.70;99.90;;;;;;5115678;28;20222;-91
2022/10/18 05:29:55;;;;;;;20.13;14.73;;;16.70;99.90;;;;;;5116500;28;20211;-92
2022/10/18 05:32:37;;;;;;;19.40;15.20;;;16.70;99.90;;;;;;5129664;28;20201;-91
2022/10/18 05:35:05;;;;;;;25.73;15.43;;;16.50;99.90;;;;;;5116187;27;20644;-89
2022/10/18 05:37:32;;;;;;;19.40;14.03;;;16.50;99.90;;;;;;5116221;28;20686;-92
2022/10/18 05:40:04;;;;;;;19.53;15.13;;;16.60;99.90;;;;;;5116368;28;20216;-91
2022/10/18 05:42:33;;;;;;;28.47;15.57;;;16.60;99.90;;;;;;5116076;28;20213;-92
2022/10/18 05:45:02;;;;;;;21.70;15.53;;;16.60;99.90;;;;;;5116065;28;20226;-92
2022/10/18 05:47:29;;;;;;;25.87;15.90;;;16.60;99.90;;;;;;5116094;28;20190;-92
2022/10/18 05:49:58;;;;;;;24.17;16.23;;;16.50;99.90;;;;;;5115986;27;20206;-91
2022/10/18 05:52:25;;;;;;;22.90;16.03;;;16.40;99.90;;;;;;5104001;28;20215;-92
2022/10/18 05:54:58;;;;;;;25.33;16.00;;;16.40;99.90;;;;;;5094020;28;20717;-92
2022/10/18 05:57:43;;;;;;;25.55;16.90;;;16.40;99.90;;;;;;5094787;28;20893;-90
2022/10/18 06:00:12;;;;;;;22.60;16.00;;;16.30;99.90;;;;;;5096378;28;20195;-92
2022/10/18 06:02:48;;;;;;;26.30;16.70;;;16.30;99.90;;;;;;5115525;28;20205;-89
2022/10/18 06:05:15;;;;;;;27.67;16.57;;;16.30;99.90;;;;;;5115495;28;20225;-89
2022/10/18 06:07:42;;;;;;;30.27;16.70;;;16.10;99.90;;;;;;5115738;28;20292;-88
2022/10/18 06:10:15;;;;;;;23.07;16.03;;;16.00;99.90;;;;;;5115703;28;20204;-89
2022/10/18 06:12:46;;;;;;;20.07;15.67;;;15.90;99.90;;;;;;5115327;27;20198;-92
2022/10/18 06:15:16;;;;;;;25.37;16.37;;;15.90;99.90;;;;;;5115311;28;20202;-88
2022/10/18 06:17:49;;;;;;;23.37;16.23;;;15.90;99.90;;;;;;5115892;28;20214;-91
2022/10/18 06:20:17;;;;;;;25.63;16.20;;;15.90;99.90;;;;;;5116046;28;20200;-91
2022/10/18 06:23:00;;;;;;;25.50;16.03;;;15.60;99.90;;;;;;5115419;28;20209;-91
2022/10/18 06:25:33;;;;;;;38.17;23.67;;;15.70;99.90;;;;;;5114142;28;20440;-93
2022/10/18 06:28:03;;;;;;;34.03;20.00;;;15.80;99.90;;;;;;5114296;28;20201;-93
2022/10/18 06:30:34;;;;;;;29.63;18.40;;;15.90;99.90;;;;;;5115847;28;20206;-92
2022/10/18 06:33:01;;;;;;;31.40;18.50;;;15.80;99.90;;;;;;5115982;28;20237;-91
2022/10/18 06:35:31;;;;;;;27.13;18.50;;;15.80;99.90;;;;;;5122721;28;20204;-92
2022/10/18 06:38:01;;;;;;;33.87;18.60;;;15.80;99.90;;;;;;5116102;28;20208;-88
2022/10/18 06:40:36;;;;;;;35.20;20.07;;;15.90;99.90;;;;;;5115215;28;20196;-92
2022/10/18 06:43:10;;;;;;;25.10;18.47;;;15.90;99.90;;;;;;5115315;28;20204;-91
2022/10/18 06:45:43;;;;;;;28.27;18.73;;;15.60;99.90;;;;;;5115776;28;20231;-93
2022/10/18 06:48:12;;;;;;;31.83;20.43;;;15.40;99.90;;;;;;5115611;27;20269;-90
2022/10/18 06:50:39;;;;;;;29.00;18.20;;;15.40;99.90;;;;;;5115913;28;20215;-92
2022/10/18 06:53:09;;;;;;;27.77;17.17;;;15.30;99.90;;;;;;5113559;28;20203;-90
2022/10/18 06:55:37;;;;;;;25.27;17.53;;;15.20;99.90;;;;;;5115020;28;20232;-91
2022/10/18 06:58:04;;;;;;;29.07;18.77;;;15.30;99.90;;;;;;5115476;28;20197;-90
2022/10/18 07:00:36;;;;;;;25.03;19.03;;;15.40;99.90;;;;;;5112937;28;20207;-89
2022/10/18 07:03:03;;;;;;;33.37;19.17;;;15.50;99.90;;;;;;5094605;28;20212;-89
2022/10/18 07:05:31;;;;;;;26.47;18.30;;;15.30;99.90;;;;;;5094281;28;20227;-92
2022/10/18 07:08:04;;;;;;;30.77;18.80;;;15.20;99.90;;;;;;5094226;28;20209;-89
2022/10/18 07:10:37;;;;;;;34.63;25.87;;;15.20;99.90;;;;;;5105953;28;20199;-89
2022/10/18 07:13:11;;;;;;;33.67;26.80;;;15.30;99.90;;;;;;5114963;28;20625;-88
2022/10/18 07:15:43;;;;;;;40.27;30.50;;;15.50;99.90;;;;;;5117200;28;20188;-90
2022/10/18 07:18:11;;;;;;;44.58;32.83;;;15.40;99.90;;;;;;5118034;28;20433;-88
2022/10/18 07:20:40;;;;;;;41.97;29.87;;;15.60;99.90;;;;;;5115021;28;20206;-88
2022/10/18 07:23:10;;;;;;;35.70;23.97;;;15.60;99.90;;;;;;5114501;28;20189;-91
2022/10/18 07:25:43;;;;;;;42.07;26.23;;;15.80;99.90;;;;;;5114709;28;20223;-92
2022/10/18 07:28:16;;;;;;;36.80;25.40;;;15.90;99.90;;;;;;5114967;28;20204;-93
2022/10/18 07:30:45;;;;;;;44.20;24.80;;;15.90;99.90;;;;;;5118048;28;20212;-92
2022/10/18 07:33:15;;;;;;;42.33;24.43;;;15.90;99.90;;;;;;5117461;28;20207;-89
2022/10/18 07:35:44;;;;;;;37.23;24.60;;;15.90;99.90;;;;;;5117429;28;20295;-91
2022/10/18 07:38:14;;;;;;;42.90;25.67;;;15.80;99.90;;;;;;5115844;28;20197;-92
2022/10/18 07:40:47;;;;;;;37.90;25.40;;;15.90;99.90;;;;;;5116047;28;20662;-89
2022/10/18 07:43:30;;;;;;;41.00;25.23;;;15.90;99.90;;;;;;5116265;28;20205;-90
2022/10/18 07:46:04;;;;;;;38.20;24.93;;;15.90;99.90;;;;;;5114888;28;20597;-88
2022/10/18 07:48:34;;;;;;;39.33;24.17;;;15.90;99.90;;;;;;5115818;28;20209;-89
2022/10/18 07:51:03;;;;;;;49.67;26.93;;;15.80;99.90;;;;;;5116246;28;20200;-88
2022/10/18 07:53:33;;;;;;;42.90;25.23;;;15.90;99.90;;;;;;5119789;28;20223;-88
2022/10/18 07:56:04;;;;;;;36.87;25.10;;;16.00;99.90;;;;;;5118827;28;20252;-89
2022/10/18 07:58:32;;;;;;;43.87;25.20;;;15.90;99.90;;;;;;5123351;27;20262;-91
2022/10/18 08:01:04;;;;;;;43.93;24.10;;;15.90;99.90;;;;;;5122555;28;20200;-90
2022/10/18 08:03:31;;;;;;;32.67;23.17;;;15.70;99.90;;;;;;5118991;28;20197;-89
2022/10/18 08:05:58;;;;;;;33.73;22.10;;;15.80;99.90;;;;;;5119680;27;20236;-89
2022/10/18 08:08:28;;;;;;;35.83;23.70;;;15.70;99.90;;;;;;5118923;28;20208;-88
2022/10/18 08:11:02;;;;;;;37.67;23.23;;;16.00;99.90;;;;;;5118800;28;20421;-88
2022/10/18 08:13:30;;;;;;;32.87;19.93;;;16.10;99.90;;;;;;5118978;28;20204;-89
2022/10/18 08:16:06;;;;;;;29.63;20.23;;;15.80;99.90;;;;;;5119200;27;20189;-89
2022/10/18 08:18:36;;;;;;;28.13;19.67;;;15.70;99.90;;;;;;5118637;28;20203;-88
2022/10/18 08:21:12;;;;;;;35.70;21.63;;;15.60;99.90;;;;;;5099195;28;20212;-88
2022/10/18 08:23:39;;;;;;;23.13;18.80;;;15.50;99.90;;;;;;5104751;28;20212;-90
2022/10/18 08:26:08;;;;;;;27.90;19.30;;;15.50;99.90;;;;;;5112275;28;20300;-88
2022/10/18 08:28:35;;;;;;;30.63;18.27;;;15.40;99.90;;;;;;5116862;28;20196;-89
2022/10/18 08:31:06;;;;;;;31.97;16.87;;;15.50;99.90;;;;;;5116748;28;20204;-89
2022/10/18 08:33:34;;;;;;;27.13;17.37;;;15.60;99.90;;;;;;5115333;28;20215;-87
2022/10/18 08:36:04;;;;;;;24.33;16.80;;;15.70;99.90;;;;;;5114986;28;20227;-89
2022/10/18 08:38:33;;;;;;;21.07;15.77;;;15.70;99.90;;;;;;5114882;28;20209;-88
2022/10/18 08:41:02;;;;;;;24.70;14.77;;;15.70;99.90;;;;;;5104315;28;20208;-87
2022/10/18 08:43:37;;;;;;;25.60;15.60;;;15.80;99.90;;;;;;5102309;28;20200;-87
2022/10/18 08:46:55;;;;;;;30.90;14.93;;;15.80;99.90;;;;;;5100161;28;20208;-88
2022/10/18 08:49:36;;;;;;;22.87;13.63;;;15.90;99.90;;;;;;5098987;28;20193;-88
2022/10/18 08:52:14;;;;;;;22.27;12.83;;;16.00;99.90;;;;;;5100512;28;20645;-89
2022/10/18 08:54:55;;;;;;;21.60;12.07;;;16.10;99.90;;;;;;5098020;28;20201;-87
2022/10/18 08:57:24;;;;;;;21.53;11.53;;;16.20;99.90;;;;;;5097602;28;20200;-87
2022/10/18 08:59:52;;;;;;;21.33;11.57;;;16.10;99.90;;;;;;5096845;28;20198;-87
2022/10/18 09:02:35;;;;;;;19.97;10.93;;;16.20;99.90;;;;;;5105707;28;20193;-88
2022/10/18 09:05:15;;;;;;;20.40;10.67;;;16.30;99.90;;;;;;5116832;28;20206;-87
2022/10/18 09:08:09;;;;;;;25.00;11.10;;;16.20;99.90;;;;;;5116038;28;20232;-86
2022/10/18 09:10:44;;;;;;;20.70;11.17;;;16.20;99.90;;;;;;5116763;28;20228;-86
2022/10/18 09:13:30;;;;;;;23.30;11.17;;;16.50;99.90;;;;;;5117074;28;20189;-88
2022/10/18 09:16:04;;;;;;;21.37;11.27;;;16.60;99.90;;;;;;5117220;28;20193;-88
2022/10/18 09:18:59;;;;;;;18.70;10.37;;;16.60;99.90;;;;;;5117091;28;20200;-88
2022/10/18 09:21:36;;;;;;;26.20;10.53;;;16.90;99.90;;;;;;5116965;28;20209;-88
2022/10/18 09:24:12;;;;;;;16.87;8.73;;;16.80;99.90;;;;;;5119146;28;20197;-88
2022/10/18 09:26:45;;;;;;;19.23;9.33;;;16.80;99.90;;;;;;5116356;28;20216;-87
2022/10/18 09:29:33;;;;;;;22.03;8.60;;;16.90;99.90;;;;;;5116477;28;20216;-86
2022/10/18 09:32:07;;;;;;;17.30;7.80;;;16.80;99.90;;;;;;5116880;28;20210;-87
2022/10/18 09:34:40;;;;;;;20.83;8.20;;;16.80;99.90;;;;;;5115889;28;20288;-86
2022/10/18 09:37:18;;;;;;;22.90;9.67;;;17.00;99.90;;;;;;5115999;28;20213;-87
2022/10/18 09:39:50;;;;;;;19.03;8.43;;;17.00;99.90;;;;;;5116176;28;20213;-87
2022/10/18 09:42:29;;;;;;;25.40;9.13;;;17.10;99.90;;;;;;5117152;28;20205;-87
2022/10/18 09:45:16;;;;;;;22.20;8.73;;;17.20;99.90;;;;;;5115704;28;20201;-86
2022/10/18 09:47:47;;;;;;;18.27;8.83;;;17.30;99.90;;;;;;5115384;28;20261;-86
2022/10/18 09:50:23;;;;;;;17.43;8.60;;;17.30;99.90;;;;;;5115692;28;20212;-86
2022/10/18 09:52:59;;;;;;;20.40;7.40;;;17.40;99.90;;;;;;5116221;28;20203;-87
2022/10/18 09:55:35;;;;;;;19.97;7.13;;;17.30;99.90;;;;;;5114384;28;20231;-87
2022/10/18 09:58:05;;;;;;;15.27;7.20;;;17.60;99.90;;;;;;5113622;28;20203;-87
2022/10/18 10:00:38;;;;;;;14.97;7.10;;;17.80;99.90;;;;;;5114996;28;20619;-87
2022/10/18 10:03:10;;;;;;;20.37;7.37;;;17.70;99.90;;;;;;5115142;28;20208;-87
2022/10/18 10:05:37;;;;;;;22.43;9.30;;;17.70;99.90;;;;;;5115342;28;20204;-87
2022/10/18 10:08:06;;;;;;;23.03;9.77;;;17.90;99.90;;;;;;5114678;28;20211;-87
2022/10/18 10:10:33;;;;;;;19.47;9.90;;;18.20;99.90;;;;;;5116254;28;20193;-87
2022/10/18 10:13:05;;;;;;;20.70;10.17;;;18.20;99.90;;;;;;5114820;27;20211;-87
2022/10/18 10:15:35;;;;;;;17.70;9.83;;;18.30;99.90;;;;;;5114094;28;20220;-87
2022/10/18 10:18:04;;;;;;;22.33;9.03;;;18.20;99.90;;;;;;5114713;28;20233;-88
2022/10/18 10:20:36;;;;;;;18.90;12.97;;;18.50;99.90;;;;;;5115024;28;20201;-88
2022/10/18 10:23:13;;;;;;;16.17;10.70;;;18.50;99.90;;;;;;5114778;28;20214;-88
2022/10/18 10:25:42;;;;;;;18.40;11.70;;;18.50;99.90;;;;;;5113702;28;20196;-90
2022/10/18 10:28:14;;;;;;;21.67;12.23;;;18.40;99.90;;;;;;5122816;28;20683;-89
2022/10/18 10:30:41;;;;;;;24.53;15.37;;;18.30;99.90;;;;;;5116235;27;20208;-90
2022/10/18 10:33:34;;;;;;;18.57;14.73;;;18.50;99.90;;;;;;5114549;28;20196;-88
2022/10/18 10:36:02;;;;;;;20.07;12.10;;;18.30;99.90;;;;;;5115134;28;20579;-90
2022/10/18 10:38:31;;;;;;;20.50;13.10;;;18.20;99.90;;;;;;5114976;28;20662;-91
2022/10/18 10:40:59;;;;;;;15.03;11.10;;;18.40;99.90;;;;;;5114727;28;20196;-87
2022/10/18 10:43:28;;;;;;;20.57;10.33;;;18.60;99.90;;;;;;5114586;28;20208;-87
2022/10/18 10:46:02;;;;;;;19.37;9.73;;;18.50;99.90;;;;;;5115082;28;20635;-87
2022/10/18 10:48:33;;;;;;;17.50;8.93;;;18.60;99.90;;;;;;5114351;28;20203;-87
2022/10/18 10:51:03;;;;;;;17.00;8.67;;;18.80;99.90;;;;;;5107283;28;20266;-90
2022/10/18 10:53:43;;;;;;;20.73;9.30;;;18.80;99.90;;;;;;5104389;28;20769;-89
2022/10/18 10:56:24;;;;;;;23.63;9.23;;;19.10;99.90;;;;;;5114566;28;20256;-88
2022/10/18 10:58:55;;;;;;;18.87;8.70;;;19.30;99.90;;;;;;5114614;28;20203;-88
2022/10/18 11:01:27;;;;;;;14.97;7.23;;;19.40;99.90;;;;;;5117369;28;20204;-91
2022/10/18 11:03:55;;;;;;;15.77;7.32;;;19.60;99.90;;;;;;5115052;28;20440;-88
2022/10/18 11:06:35;;;;;;;14.63;8.10;;;19.30;99.90;;;;;;5114624;28;20227;-83
2022/10/18 11:09:12;;;;;;;15.67;7.67;;;19.10;99.90;;;;;;5114858;28;20203;-86
2022/10/18 11:11:48;;;;;;;14.40;5.63;;;19.10;99.90;;;;;;5114492;28;20204;-90
2022/10/18 11:14:24;;;;;;;11.40;5.20;;;19.00;99.90;;;;;;5114286;28;20652;-88
2022/10/18 11:17:02;;;;;;;15.17;7.33;;;19.00;99.90;;;;;;5114233;28;20226;-87
2022/10/18 11:19:38;;;;;;;18.47;7.40;;;19.00;99.90;;;;;;5115526;28;20212;-83
2022/10/18 11:22:16;;;;;;;15.47;6.67;;;19.30;99.90;;;;;;5115610;28;20245;-87
2022/10/18 11:24:44;;;;;;;12.50;6.83;;;19.30;99.90;;;;;;5115242;28;20196;-89
2022/10/18 11:27:16;;;;;;;16.20;7.70;;;19.40;99.90;;;;;;5104914;28;20223;-89
2022/10/18 11:29:52;;;;;;;18.50;8.17;;;19.60;99.90;;;;;;5114421;28;20549;-88
2022/10/18 11:32:25;;;;;;;17.47;7.37;;;19.60;99.90;;;;;;5106398;28;20200;-90
2022/10/18 11:35:03;;;;;;;15.33;8.23;;;19.70;99.90;;;;;;5117674;28;20667;-85
2022/10/18 11:37:46;;;;;;;19.83;7.57;;;19.90;99.90;;;;;;5118079;28;20207;-88
2022/10/18 11:40:47;;;;;;;18.00;7.90;;;19.90;99.90;;;;;;5119283;28;20204;-86
2022/10/18 11:43:20;;;;;;;14.20;7.27;;;19.60;99.90;;;;;;5118152;28;20204;-83
2022/10/18 11:45:56;;;;;;;15.43;7.47;;;19.70;99.90;;;;;;5116978;27;20211;-87
2022/10/18 11:48:47;;;;;;;14.00;7.40;;;19.40;99.90;;;;;;5117826;28;20226;-86
2022/10/18 11:51:23;;;;;;;14.17;6.80;;;19.50;99.90;;;;;;5115139;28;20212;-87
2022/10/18 11:54:04;;;;;;;15.87;6.60;;;19.60;99.90;;;;;;5117585;28;20210;-85
2022/10/18 11:56:39;;;;;;;16.47;7.17;;;19.60;99.90;;;;;;5117427;27;20224;-87
2022/10/18 11:59:27;;;;;;;21.10;7.53;;;19.70;99.90;;;;;;5117909;28;20536;-85
2022/10/18 12:02:16;;;;;;;14.60;6.87;;;19.90;99.90;;;;;;5117363;28;20663;-87
2022/10/18 12:04:50;;;;;;;13.53;6.50;;;20.10;99.90;;;;;;5116938;28;20200;-85
2022/10/18 12:07:20;;;;;;;11.67;6.37;;;20.10;99.90;;;;;;5117480;28;20227;-84
2022/10/18 12:09:50;;;;;;;10.93;5.97;;;19.80;99.90;;;;;;5117911;27;20661;-85
2022/10/18 12:12:22;;;;;;;13.20;6.37;;;19.50;99.90;;;;;;5117276;28;20664;-86
2022/10/18 12:14:52;;;;;;;12.77;5.40;;;19.80;99.90;;;;;;5117223;27;20209;-85
2022/10/18 12:17:33;;;;;;;14.13;5.07;;;19.90;99.90;;;;;;5117062;28;20192;-88
2022/10/18 12:20:06;;;;;;;11.07;4.57;;;19.70;99.90;;;;;;5117023;28;20204;-88
2022/10/18 12:22:38;;;;;;;10.77;3.93;;;19.60;99.90;;;;;;5117044;28;20207;-88
2022/10/18 12:25:11;;;;;;;16.23;5.13;;;19.70;99.90;;;;;;5117596;28;20406;-86
2022/10/18 12:27:46;;;;;;;12.07;5.87;;;19.80;99.90;;;;;;5116894;28;20491;-85
2022/10/18 12:30:26;;;;;;;14.90;5.23;;;19.80;99.90;;;;;;5117285;27;20188;-85
2022/10/18 12:33:05;;;;;;;12.67;5.23;;;19.70;99.90;;;;;;5115557;28;20204;-86
2022/10/18 12:35:46;;;;;;;10.53;3.87;;;19.50;99.90;;;;;;5100530;28;20593;-85
2022/10/18 12:38:21;;;;;;;11.47;3.63;;;19.50;99.90;;;;;;5100002;28;20205;-84
2022/10/18 12:40:55;;;;;;;13.17;4.23;;;19.60;99.90;;;;;;5095550;28;20199;-84
2022/10/18 12:43:24;;;;;;;12.83;4.07;;;19.60;99.90;;;;;;5115653;28;20274;-84
2022/10/18 12:45:55;;;;;;;13.13;4.27;;;19.50;99.90;;;;;;5116043;28;20211;-85
2022/10/18 12:48:33;;;;;;;13.50;4.30;;;19.60;99.90;;;;;;5115843;27;20325;-84
2022/10/18 12:51:05;;;;;;;10.53;3.70;;;19.70;99.90;;;;;;5116158;28;20243;-84
2022/10/18 12:53:33;;;;;;;15.90;4.70;;;19.80;99.90;;;;;;5116183;27;20200;-85
2022/10/18 12:56:36;;;;;;;15.33;4.37;;;19.90;99.90;;;;;;5115984;27;20216;-86
2022/10/18 12:59:41;;;;;;;11.30;3.40;;;19.60;99.90;;;;;;5112530;28;20234;-86
2022/10/18 13:02:27;;;;;;;9.67;3.50;;;19.60;99.90;;;;;;5116165;28;20218;-85
2022/10/18 13:04:55;;;;;;;13.10;4.10;;;19.70;99.90;;;;;;5115644;28;20283;-85
2022/10/18 13:07:41;;;;;;;11.80;4.47;;;19.70;99.90;;;;;;5115437;27;20228;-85
2022/10/18 13:10:39;;;;;;;11.77;3.53;;;19.70;99.90;;;;;;5115670;28;20207;-85
2022/10/18 13:13:30;;;;;;;13.07;3.60;;;19.60;99.90;;;;;;5115519;28;20203;-85
2022/10/18 13:16:04;;;;;;;11.30;3.73;;;19.50;99.90;;;;;;5116206;28;20202;-85
2022/10/18 13:18:41;;;;;;;10.93;3.17;;;19.60;99.90;;;;;;5115977;28;20220;-85
2022/10/18 13:21:15;;;;;;;12.47;3.40;;;19.60;99.90;;;;;;5116118;28;20197;-85
2022/10/18 13:24:05;;;;;;;12.97;3.67;;;19.50;99.90;;;;;;5115870;28;20232;-87
2022/10/18 13:26:44;;;;;;;9.30;3.03;;;19.50;99.90;;;;;;5114740;28;20502;-86
2022/10/18 13:29:29;;;;;;;9.93;2.87;;;19.60;99.90;;;;;;5116050;28;20204;-87
2022/10/18 13:32:02;;;;;;;13.00;3.13;;;19.60;99.90;;;;;;5115915;28;20200;-87
2022/10/18 13:34:34;;;;;;;16.90;3.07;;;19.80;99.90;;;;;;5115768;28;20643;-85
2022/10/18 13:37:04;;;;;;;11.17;3.50;;;19.60;99.90;;;;;;5115470;28;20196;-85
2022/10/18 13:39:38;;;;;;;16.67;3.63;;;19.70;99.90;;;;;;5115572;28;20663;-86
2022/10/18 13:42:30;;;;;;;7.57;3.03;;;19.70;99.90;;;;;;5115533;28;20208;-86
2022/10/18 13:45:28;;;;;;;14.47;3.60;;;19.80;99.90;;;;;;5115416;28;20191;-84
2022/10/18 13:48:17;;;;;;;12.43;3.83;;;19.70;99.90;;;;;;5063816;28;20709;-86
2022/10/18 13:50:48;;;;;;;23.87;11.63;;;19.60;99.90;;;;;;5093928;28;20203;-86
2022/10/18 13:53:41;;;;;;;17.47;4.30;;;19.80;99.90;;;;;;5096346;27;20212;-86
2022/10/18 13:56:24;;;;;;;12.43;4.23;;;19.80;99.90;;;;;;5094279;28;20240;-86